Terminal Aerodrome Forecast
Issued by NWS Wilmington, OH

Current Version | Previous Version | Graphics & Text | Print | Product List | Glossary On
Versions: 1 2 3 4 5 6 7 8 9 10 11 12 13 14 15 16 17 18 19 20 21 22
000
FTUS41 KILN 180200 AAA
TAFCMH
TAF AMD
KCMH 180222Z 1802/1824 28014G26KT P6SM OVC050
     FM180400 28012G18KT P6SM OVC035
      TEMPO 1805/1808 BKN025
     FM180800 28012KT P6SM OVC015
     FM181400 30012G22KT P6SM OVC018
     FM181900 31014G24KT P6SM VCSH OVC025
      TEMPO 1819/1823 -SHRA
     FM182300 32012G18KT P6SM BKN025=

USA.gov is the U.S. government's official web portal to all federal, state and local government web resources and services.